Time;durP1;ratioP1;P1;durP2;ratioP2;P2;SDS_P1;SDS_P2;PMS_P1;PMS_P2;Temp;Humidity;BMP_temperature;BMP_pressure;BME280_temperature;BME280_humidity;BME280_pressure;Samples;Min_cycle;Max_cycle;Signal;HPM_P1;HPM_P2
2020/12/12 00:00:20;;;;;;;14.18;6.40;;;;;;;2.56;88.07;96941.41;5051117;28;20451;-80
2020/12/12 00:02:46;;;;;;;15.27;7.57;;;;;;;2.48;87.42;96928.94;5051511;28;20053;-80
2020/12/12 00:05:13;;;;;;;13.02;7.35;;;;;;;2.41;87.30;96913.75;5051566;28;20501;-79
2020/12/12 00:07:39;;;;;;;15.38;7.38;;;;;;;2.51;87.93;96930.41;5051410;28;20045;-79
2020/12/12 00:10:06;;;;;;;17.27;7.93;;;;;;;2.58;87.59;96941.22;5051989;28;20056;-80
2020/12/12 00:12:32;;;;;;;13.50;7.60;;;;;;;2.45;87.40;96917.75;5050965;28;20047;-80
2020/12/12 00:14:58;;;;;;;10.40;6.50;;;;;;;2.62;87.71;96934.44;5051480;28;20061;-80
2020/12/12 00:17:25;;;;;;;11.13;7.57;;;;;;;2.52;87.41;96920.50;5050990;28;20197;-80
2020/12/12 00:19:51;;;;;;;15.95;7.63;;;;;;;2.59;86.88;96924.94;5051228;28;20053;-80
2020/12/12 00:22:17;;;;;;;12.77;6.78;;;;;;;2.58;87.20;96925.13;5051074;28;20045;-80
2020/12/12 00:24:44;;;;;;;10.82;6.45;;;;;;;2.52;87.36;96921.34;5050827;28;20124;-80
2020/12/12 00:27:11;;;;;;;13.25;6.72;;;;;;;2.56;87.43;96930.69;5051575;28;20417;-80
2020/12/12 00:29:37;;;;;;;12.18;6.43;;;;;;;2.64;86.68;96922.50;5051327;28;20052;-80
2020/12/12 00:32:03;;;;;;;10.63;6.00;;;;;;;2.65;86.81;96918.00;5050704;28;20048;-80
2020/12/12 00:34:30;;;;;;;13.18;7.53;;;;;;;2.56;86.85;96914.59;5052414;28;20052;-80
2020/12/12 00:36:56;;;;;;;12.15;6.80;;;;;;;2.69;86.44;96913.06;5051138;28;20045;-80
2020/12/12 00:39:23;;;;;;;13.02;6.82;;;;;;;2.64;87.03;96925.19;5050959;28;20044;-80
2020/12/12 00:41:50;;;;;;;16.35;9.00;;;;;;;2.57;86.79;96899.31;5050860;28;20409;-80
2020/12/12 00:44:17;;;;;;;19.17;7.70;;;;;;;2.58;86.50;96892.94;5050901;28;20106;-80
2020/12/12 00:46:45;;;;;;;16.17;6.95;;;;;;;2.54;86.74;96900.50;5050990;28;20048;-80
2020/12/12 00:49:12;;;;;;;12.32;6.45;;;;;;;2.80;86.04;96924.13;5051024;28;20528;-80
2020/12/12 00:51:39;;;;;;;15.13;7.25;;;;;;;2.76;86.89;96924.69;5041945;28;20044;-80
2020/12/12 00:54:05;;;;;;;14.80;7.68;;;;;;;2.68;86.76;96931.03;5050624;28;20049;-80
2020/12/12 00:56:32;;;;;;;12.23;6.63;;;;;;;2.62;87.12;96912.97;5051325;28;20045;-80
2020/12/12 00:58:58;;;;;;;10.60;6.80;;;;;;;2.52;87.41;96893.69;5050714;28;20067;-80
2020/12/12 01:01:26;;;;;;;16.77;7.85;;;;;;;2.72;87.40;96926.91;5050318;28;20053;-80
2020/12/12 01:03:52;;;;;;;13.73;7.43;;;;;;;2.67;87.92;96918.63;5050146;28;20520;-80
2020/12/12 01:06:19;;;;;;;17.20;7.25;;;;;;;2.59;88.31;96919.56;5050544;28;20538;-80
2020/12/12 01:08:47;;;;;;;15.88;7.35;;;;;;;2.68;88.41;96930.16;5051148;28;20057;-80
2020/12/12 01:11:15;;;;;;;13.68;7.03;;;;;;;2.67;88.47;96926.66;5052670;28;20559;-80
2020/12/12 01:13:42;;;;;;;18.45;8.85;;;;;;;2.59;88.45;96919.56;5049852;28;20119;-80
2020/12/12 01:16:09;;;;;;;13.05;6.38;;;;;;;2.67;88.17;96928.53;5050229;28;20056;-80
2020/12/12 01:18:37;;;;;;;15.32;7.90;;;;;;;2.70;88.32;96923.59;5050115;28;20110;-80
2020/12/12 01:21:04;;;;;;;12.80;7.05;;;;;;;2.59;88.77;96906.16;5049737;28;20065;-80
2020/12/12 01:23:30;;;;;;;16.17;8.38;;;;;;;2.78;87.82;96930.69;5050123;28;20048;-80
2020/12/12 01:25:56;;;;;;;15.65;7.07;;;;;;;2.60;88.00;96909.66;5052665;28;20171;-80
2020/12/12 01:28:22;;;;;;;14.30;7.40;;;;;;;2.63;88.08;96920.84;5053477;28;20494;-80
2020/12/12 01:30:49;;;;;;;12.95;7.03;;;;;;;2.59;88.14;96919.56;5054551;28;20052;-80
2020/12/12 01:33:16;;;;;;;13.25;7.60;;;;;;;2.60;88.22;96913.16;5055408;28;20063;-80
2020/12/12 01:35:43;;;;;;;13.52;7.63;;;;;;;2.59;88.06;96918.72;5054224;28;20102;-80
2020/12/12 01:38:10;;;;;;;14.27;7.03;;;;;;;2.58;88.39;96927.81;5054523;28;20041;-80
2020/12/12 01:40:37;;;;;;;18.52;8.02;;;;;;;2.59;88.47;96919.56;5054312;28;20075;-80
2020/12/12 01:43:03;;;;;;;15.93;7.68;;;;;;;2.60;87.73;96920.38;5054564;28;20448;-80
2020/12/12 01:45:29;;;;;;;20.90;8.07;;;;;;;2.56;88.27;96927.16;5054519;28;20041;-80
2020/12/12 01:47:57;;;;;;;13.55;7.40;;;;;;;2.48;88.47;96917.38;5053823;28;20057;-80
2020/12/12 01:50:24;;;;;;;18.60;7.65;;;;;;;2.58;88.27;96936.69;5054264;28;20106;-80
2020/12/12 01:52:52;;;;;;;12.63;7.50;;;;;;;2.37;88.75;96907.97;5054124;28;20418;-80
2020/12/12 01:55:20;;;;;;;19.52;9.13;;;;;;;2.33;88.73;96909.34;5051397;28;20068;-80
2020/12/12 01:57:49;;;;;;;14.25;6.97;;;;;;;2.44;88.75;96921.47;5054244;28;20463;-80
2020/12/12 02:00:15;;;;;;;13.65;7.25;;;;;;;2.42;88.75;96928.84;5053635;28;20136;-80
2020/12/12 02:02:47;;;;;;;13.27;7.60;;;;;;;2.36;89.04;96935.78;5053641;28;20041;-80
2020/12/12 02:05:38;;;;;;;16.70;8.05;;;;;;;2.30;89.27;96934.72;5053755;28;20049;-80
2020/12/12 02:08:07;;;;;;;19.80;8.10;;;;;;;2.37;88.98;96931.28;5053915;28;20053;-80
2020/12/12 02:10:34;;;;;;;19.58;8.20;;;;;;;2.36;89.07;96943.81;5053589;28;20083;-80
2020/12/12 02:13:01;;;;;;;16.67;8.32;;;;;;;2.29;88.76;96919.63;5053341;28;20079;-80
2020/12/12 02:15:28;;;;;;;15.52;7.40;;;;;;;2.35;88.99;96927.94;5053571;28;20048;-80
2020/12/12 02:17:54;;;;;;;14.15;6.63;;;;;;;2.32;89.02;96923.78;5052535;28;20111;-80
2020/12/12 02:20:20;;;;;;;18.05;8.93;;;;;;;2.38;89.22;96924.88;5053985;28;20045;-80
2020/12/12 02:22:47;;;;;;;17.58;8.15;;;;;;;2.40;88.60;96922.84;5052327;28;20049;-80
2020/12/12 02:25:14;;;;;;;15.80;8.20;;;;;;;2.39;88.87;96931.91;5052995;28;20048;-80
2020/12/12 02:27:40;;;;;;;14.35;7.15;;;;;;;2.46;88.75;96930.13;5053029;28;20098;-80
2020/12/12 02:30:07;;;;;;;15.27;7.68;;;;;;;2.39;88.81;96922.00;5052981;28;20080;-80
2020/12/12 02:32:34;;;;;;;19.73;9.00;;;;;;;2.54;88.59;96927.34;5053703;28;20049;-81
2020/12/12 02:35:01;;;;;;;13.98;7.32;;;;;;;2.46;88.83;96930.13;5052329;28;20103;-80
2020/12/12 02:37:27;;;;;;;21.95;8.52;;;;;;;2.40;88.67;96917.50;5053581;28;20056;-80
2020/12/12 02:39:54;;;;;;;16.00;8.05;;;;;;;2.36;89.02;96921.56;5052545;28;20134;-80
2020/12/12 02:42:21;;;;;;;18.48;8.73;;;;;;;2.33;89.33;96919.25;5053597;28;20056;-81
2020/12/12 02:44:51;;;;;;;15.13;7.70;;;;;;;2.36;89.15;96930.41;5052655;28;20068;-81
2020/12/12 02:47:18;;;;;;;19.08;8.50;;;;;;;2.42;88.93;96926.16;5053254;28;20061;-80
2020/12/12 02:49:44;;;;;;;20.48;9.35;;;;;;;2.56;88.82;96925.31;5053060;28;20114;-80
2020/12/12 02:52:11;;;;;;;17.98;8.90;;;;;;;2.51;88.82;96914.31;5052548;28;20071;-80
2020/12/12 02:54:37;;;;;;;22.25;8.60;;;;;;;2.65;87.94;96926.03;5052537;28;20052;-80
2020/12/12 02:57:04;;;;;;;14.48;8.13;;;;;;;2.48;87.88;96894.06;5052660;28;20071;-80
2020/12/12 02:59:30;;;;;;;17.02;9.00;;;;;;;2.46;88.76;96898.78;5052814;28;20037;-80
2020/12/12 03:01:57;;;;;;;17.13;8.95;;;;;;;2.52;88.55;96909.78;5052913;28;20460;-80
2020/12/12 03:04:23;;;;;;;17.27;8.52;;;;;;;2.56;88.57;96925.31;5052725;28;20057;-80
2020/12/12 03:06:49;;;;;;;17.33;8.95;;;;;;;2.45;88.41;96913.22;5052722;28;20041;-80
2020/12/12 03:09:15;;;;;;;15.05;8.48;;;;;;;2.49;87.89;96913.66;5052935;28;20068;-80
2020/12/12 03:11:42;;;;;;;16.17;8.10;;;;;;;2.56;88.31;96930.69;5052348;28;20061;-80
2020/12/12 03:14:09;;;;;;;20.70;9.55;;;;;;;2.67;87.79;96932.03;5052290;28;20045;-80
2020/12/12 03:16:36;;;;;;;15.80;8.65;;;;;;;2.63;88.26;96936.09;5052362;28;20053;-80
2020/12/12 03:19:02;;;;;;;17.33;9.05;;;;;;;2.56;88.00;96917.25;5052115;28;20045;-80
2020/12/12 03:21:29;;;;;;;18.48;9.02;;;;;;;2.65;87.74;96921.50;5051983;28;20045;-80
2020/12/12 03:23:55;;;;;;;14.25;8.07;;;;;;;2.68;87.51;96927.50;5052209;28;20512;-80
2020/12/12 03:26:22;;;;;;;18.40;8.48;;;;;;;2.65;87.73;96929.53;5052556;28;20053;-80
2020/12/12 03:28:48;;;;;;;17.55;9.07;;;;;;;2.60;87.82;96933.81;5052018;28;20047;-80
2020/12/12 03:31:15;;;;;;;20.15;8.77;;;;;;;2.57;87.61;96918.09;5052432;28;20065;-80
2020/12/12 03:33:41;;;;;;;14.75;7.88;;;;;;;2.62;87.51;96929.91;5051668;28;20486;-80
2020/12/12 03:36:08;;;;;;;18.85;8.60;;;;;;;2.60;88.15;96925.75;5051402;28;20502;-80
2020/12/12 03:38:34;;;;;;;18.35;8.90;;;;;;;2.39;88.43;96908.59;5052224;28;20333;-80
2020/12/12 03:41:00;;;;;;;16.65;8.10;;;;;;;2.52;87.92;96920.50;5051304;28;20052;-80
2020/12/12 03:43:27;;;;;;;17.58;8.38;;;;;;;2.62;87.96;96940.66;5052556;28;20061;-80
2020/12/12 03:45:53;;;;;;;20.77;9.30;;;;;;;2.60;88.16;96936.47;5051886;28;20057;-80
2020/12/12 03:48:20;;;;;;;15.90;8.15;;;;;;;2.52;88.53;96931.25;5051780;28;20106;-80
2020/12/12 03:50:46;;;;;;;19.80;10.00;;;;;;;2.67;87.89;96945.44;5051875;28;20551;-80
2020/12/12 03:53:13;;;;;;;14.85;8.65;;;;;;;2.52;88.09;96924.03;5052725;28;20102;-80
2020/12/12 03:55:39;;;;;;;16.33;8.60;;;;;;;2.46;88.64;96922.91;5052053;28;20053;-80
2020/12/12 03:58:05;;;;;;;15.77;8.40;;;;;;;2.59;88.64;96953.59;5052196;28;20091;-80
2020/12/12 04:00:31;;;;;;;19.30;8.88;;;;;;;2.48;88.87;96939.66;5051476;28;20045;-81
2020/12/12 04:02:58;;;;;;;17.58;9.27;;;;;;;2.59;89.35;96962.50;5052239;28;20052;-80
2020/12/12 04:05:25;;;;;;;16.17;7.95;;;;;;;2.55;88.65;96952.31;5051743;28;20103;-80
2020/12/12 04:07:51;;;;;;;15.98;8.38;;;;;;;2.44;89.22;96941.06;5051826;28;20052;-80
2020/12/12 04:10:18;;;;;;;18.00;9.02;;;;;;;2.53;89.46;96963.25;5051656;28;20040;-80
2020/12/12 04:12:44;;;;;;;20.58;9.57;;;;;;;2.41;89.42;96944.13;5051293;28;20044;-80
2020/12/12 04:15:10;;;;;;;16.95;8.48;;;;;;;2.56;89.36;96970.06;5050806;28;20489;-79
2020/12/12 04:17:36;;;;;;;19.63;9.15;;;;;;;2.52;89.67;96963.44;5051730;28;20094;-79
2020/12/12 04:20:04;;;;;;;18.92;9.13;;;;;;;2.44;90.00;96956.31;5056283;28;20052;-79
2020/12/12 04:22:31;;;;;;;17.55;8.63;;;;;;;2.46;90.02;96965.81;5051085;28;20102;-80
2020/12/12 04:24:58;;;;;;;21.42;8.75;;;;;;;2.43;90.32;96952.78;5050166;28;20053;-79
2020/12/12 04:27:24;;;;;;;16.38;8.45;;;;;;;2.52;90.04;96966.94;5050088;28;20111;-80
2020/12/12 04:29:50;;;;;;;17.83;8.85;;;;;;;2.47;89.77;96955.94;5051448;28;20111;-80
2020/12/12 04:32:17;;;;;;;16.88;9.18;;;;;;;2.51;90.11;96957.22;5051186;28;20057;-80
2020/12/12 04:34:43;;;;;;;16.98;9.27;;;;;;;2.58;89.65;96963.50;5050891;28;20501;-80
2020/12/12 04:37:09;;;;;;;17.65;9.35;;;;;;;2.69;89.34;96970.22;5050758;28;20075;-80
2020/12/12 04:39:36;;;;;;;18.88;9.15;;;;;;;2.59;88.83;96932.97;5051348;28;20052;-80
2020/12/12 04:42:04;;;;;;;18.95;9.93;;;;;;;2.82;88.98;96961.50;5052190;28;20725;-80
2020/12/12 04:44:31;;;;;;;18.38;9.27;;;;;;;2.62;89.03;96935.28;5056961;28;20060;-80
2020/12/12 04:46:58;;;;;;;16.45;9.38;;;;;;;2.71;88.62;96954.78;5050841;28;20045;-80
2020/12/12 04:49:24;;;;;;;18.70;9.20;;;;;;;2.77;88.42;96966.59;5051028;28;20055;-80
2020/12/12 04:51:52;;;;;;;18.98;9.30;;;;;;;2.71;88.43;96948.56;5050772;28;20500;-80
2020/12/12 04:54:20;;;;;;;21.25;10.38;;;;;;;2.82;88.13;96956.13;5050919;28;20049;-80
2020/12/12 04:56:48;;;;;;;21.23;10.25;;;;;;;2.88;87.60;96952.69;5051433;28;20364;-80
2020/12/12 04:59:16;;;;;;;21.20;10.02;;;;;;;2.83;87.71;96949.72;5051365;28;20052;-80
2020/12/12 05:01:42;;;;;;;21.98;11.30;;;;;;;2.79;87.71;96949.28;5054620;28;20512;-80
2020/12/12 05:04:08;;;;;;;19.35;10.55;;;;;;;2.75;87.77;96944.50;5054996;28;20045;-79
2020/12/12 05:06:35;;;;;;;20.90;10.40;;;;;;;2.75;87.84;96939.94;5054992;28;20067;-79
2020/12/12 05:09:01;;;;;;;21.42;10.95;;;;;;;2.61;87.64;96933.63;5054811;28;20044;-79
2020/12/12 05:11:27;;;;;;;17.58;9.38;;;;;;;2.65;86.98;96926.03;5054948;28;20053;-80
2020/12/12 05:13:55;;;;;;;16.98;8.93;;;;;;;2.58;87.52;96941.22;5054754;28;20053;-80
2020/12/12 05:16:21;;;;;;;18.00;9.32;;;;;;;2.63;87.36;96938.78;5054451;28;20048;-79
2020/12/12 05:18:50;;;;;;;19.70;9.30;;;;;;;2.55;87.23;96928.19;5054645;28;20393;-80
2020/12/12 05:21:16;;;;;;;23.65;9.30;;;;;;;2.79;86.59;96957.34;5054170;28;20517;-80
2020/12/12 05:23:43;;;;;;;17.08;9.48;;;;;;;2.80;86.64;96948.28;5054421;28;20448;-80
2020/12/12 05:26:12;;;;;;;17.95;9.45;;;;;;;2.85;86.39;96954.94;5054512;28;20414;-79
2020/12/12 05:28:39;;;;;;;19.75;10.40;;;;;;;2.90;86.93;96961.38;5054880;28;20127;-79
2020/12/12 05:31:07;;;;;;;20.92;9.73;;;;;;;2.83;86.69;96958.63;5054110;28;20493;-80
2020/12/12 05:33:33;;;;;;;17.40;9.48;;;;;;;2.82;86.43;96953.47;5054354;28;20051;-79
2020/12/12 05:35:59;;;;;;;22.17;9.23;;;;;;;2.73;86.19;96946.56;5054378;28;20110;-79
2020/12/12 05:38:26;;;;;;;21.45;8.68;;;;;;;2.82;86.54;96965.00;5054430;28;20095;-80
2020/12/12 05:40:55;;;;;;;16.33;8.88;;;;;;;2.81;86.68;96966.03;5053947;28;20041;-80
2020/12/12 05:43:29;;;;;;;17.33;8.93;;;;;;;2.87;86.92;96958.25;5054031;28;20053;-80
2020/12/12 05:45:55;;;;;;;16.95;9.68;;;;;;;2.96;86.27;96962.47;5054202;28;20049;-80
2020/12/12 05:48:22;;;;;;;19.40;9.70;;;;;;;2.75;85.78;96925.72;5053594;28;20044;-80
2020/12/12 05:50:48;;;;;;;15.60;9.30;;;;;;;2.99;86.13;96970.97;5054427;28;20045;-80
2020/12/12 05:53:16;;;;;;;20.33;9.88;;;;;;;2.70;86.43;96942.38;5054252;28;20452;-80
2020/12/12 05:55:42;;;;;;;17.15;8.45;;;;;;;2.83;86.46;96963.16;5054022;28;20057;-79
2020/12/12 05:58:09;;;;;;;18.17;10.00;;;;;;;2.89;85.46;96970.47;5053753;28;20107;-80
2020/12/12 06:00:35;;;;;;;18.85;9.48;;;;;;;2.88;85.79;96958.06;5053092;28;20692;-80
2020/12/12 06:03:05;;;;;;;19.58;10.07;;;;;;;2.92;86.49;96969.22;5054272;28;20049;-80
2020/12/12 06:05:34;;;;;;;19.73;9.40;;;;;;;2.88;86.18;96967.97;5053469;28;20049;-80
2020/12/12 06:08:02;;;;;;;18.92;8.48;;;;;;;2.91;86.40;96981.00;5053985;28;20103;-80
2020/12/12 06:10:31;;;;;;;17.20;8.82;;;;;;;2.64;86.85;96954.69;5053043;28;20048;-80
2020/12/12 06:12:59;;;;;;;23.05;8.57;;;;;;;2.68;87.38;96973.94;5053888;28;20535;-80
2020/12/12 06:15:35;;;;;;;19.75;8.32;;;;;;;2.61;87.77;96957.75;5053441;28;20452;-80
2020/12/12 06:18:22;;;;;;;17.98;9.23;;;;;;;2.71;87.02;96978.09;5053128;28;20048;-80
2020/12/12 06:20:52;;;;;;;14.20;8.10;;;;;;;2.74;86.59;96977.69;5052267;28;20463;-80
2020/12/12 06:23:19;;;;;;;18.23;8.00;;;;;;;2.80;87.07;96983.16;5052878;28;20094;-80
2020/12/12 06:25:45;;;;;;;17.55;8.23;;;;;;;2.98;85.95;96987.25;5053913;28;20106;-80
2020/12/12 06:28:19;;;;;;;16.40;8.38;;;;;;;2.68;86.12;96967.72;5053641;28;20045;-80
2020/12/12 06:30:45;;;;;;;15.95;8.65;;;;;;;2.64;86.58;96959.25;5053218;28;20091;-80
2020/12/12 06:33:11;;;;;;;14.55;8.43;;;;;;;2.67;86.54;96980.31;5053401;28;20056;-80
2020/12/12 06:35:39;;;;;;;18.80;8.27;;;;;;;2.60;87.25;96974.84;5053269;28;20103;-80
2020/12/12 06:38:23;;;;;;;17.77;8.88;;;;;;;2.69;86.92;96989.00;5053064;28;20060;-80
2020/12/12 06:40:51;;;;;;;16.95;8.43;;;;;;;2.74;86.31;97000.03;5052509;28;20045;-80
2020/12/12 06:43:29;;;;;;;16.77;8.25;;;;;;;2.72;86.66;97007.41;5053178;28;20052;-80
2020/12/12 06:45:56;;;;;;;17.40;8.15;;;;;;;2.68;86.73;96999.94;5053212;28;20049;-80
2020/12/12 06:48:25;;;;;;;15.55;8.00;;;;;;;2.72;86.25;96991.31;5053015;28;20493;-80
2020/12/12 06:50:52;;;;;;;15.07;8.05;;;;;;;2.74;85.92;96986.59;5053543;28;20057;-79
2020/12/12 06:53:20;;;;;;;18.80;8.48;;;;;;;2.79;85.41;96983.34;5053202;28;20049;-79
2020/12/12 06:56:06;;;;;;;16.38;8.80;;;;;;;2.87;85.45;97010.06;5052693;28;20122;-80
2020/12/12 06:58:33;;;;;;;13.75;7.43;;;;;;;2.72;85.32;96988.63;5052660;28;20572;-80
2020/12/12 07:00:59;;;;;;;17.58;7.75;;;;;;;2.88;85.33;97002.88;5052642;28;20037;-79
2020/12/12 07:03:25;;;;;;;13.93;7.38;;;;;;;2.99;85.05;97011.22;5053350;28;20575;-80
2020/12/12 07:06:04;;;;;;;18.15;8.65;;;;;;;3.10;84.72;97027.88;5052692;28;20451;-80
2020/12/12 07:08:31;;;;;;;17.03;8.70;;;;;;;2.90;85.41;96993.56;5052490;28;20056;-80
2020/12/12 07:10:58;;;;;;;15.40;8.30;;;;;;;3.14;84.69;97024.59;5053054;28;20103;-80
2020/12/12 07:13:24;;;;;;;16.10;8.75;;;;;;;3.14;84.46;97021.09;5053393;28;20575;-80
2020/12/12 07:15:53;;;;;;;14.48;6.93;;;;;;;2.92;85.29;97013.03;5052187;28;20056;-79
2020/12/12 07:18:22;;;;;;;15.13;8.55;;;;;;;3.11;85.29;97038.41;5052295;28;20409;-80
2020/12/12 07:20:49;;;;;;;15.55;8.20;;;;;;;3.07;85.75;97036.28;5053127;28;20052;-80
2020/12/12 07:23:17;;;;;;;18.55;7.60;;;;;;;3.01;85.75;97025.31;5050721;28;20072;-79
2020/12/12 07:25:45;;;;;;;16.30;7.72;;;;;;;3.17;85.13;97039.50;5052242;28;20071;-80
2020/12/12 07:28:12;;;;;;;19.33;9.85;;;;;;;3.15;85.02;97028.97;5051823;28;20048;-80
2020/12/12 07:30:39;;;;;;;13.43;7.53;;;;;;;3.11;85.16;97041.09;5053108;28;20041;-79
2020/12/12 07:33:05;;;;;;;16.20;7.60;;;;;;;3.07;85.44;97038.97;5052513;28;20049;-80
2020/12/12 07:35:31;;;;;;;16.08;7.88;;;;;;;3.18;85.12;97050.06;5048331;28;20090;-80
2020/12/12 07:38:02;;;;;;;16.98;7.10;;;;;;;3.25;84.93;97046.63;5051390;28;20049;-80
2020/12/12 07:40:31;;;;;;;14.90;7.88;;;;;;;3.32;85.22;97064.47;5052773;28;20102;-80
2020/12/12 07:42:58;;;;;;;12.77;7.57;;;;;;;3.21;85.28;97032.75;5053812;28;20127;-81
2020/12/12 07:45:39;;;;;;;15.45;8.38;;;;;;;3.32;85.57;97055.59;5053489;28;20071;-80
2020/12/12 07:48:08;;;;;;;13.40;7.75;;;;;;;3.32;85.44;97069.00;5054257;28;20061;-79
2020/12/12 07:50:35;;;;;;;17.63;7.68;;;;;;;3.23;86.08;97062.91;5061438;28;20423;-79
2020/12/12 07:53:06;;;;;;;13.15;6.97;;;;;;;3.18;86.09;97066.19;5072316;28;20102;-80
2020/12/12 07:55:33;;;;;;;13.20;7.65;;;;;;;3.16;86.40;97064.69;5052638;28;20480;-80
2020/12/12 07:58:01;;;;;;;9.80;6.47;;;;;;;3.27;86.12;97074.13;5052171;28;20149;-80
2020/12/12 08:00:28;;;;;;;15.30;7.90;;;;;;;3.42;85.81;97076.75;5050826;28;20057;-80
2020/12/12 08:02:56;;;;;;;14.57;7.85;;;;;;;3.35;86.12;97074.81;5052133;28;20102;-80
2020/12/12 08:05:22;;;;;;;14.93;7.70;;;;;;;3.49;85.72;97078.50;5051769;28;20129;-80
2020/12/12 08:07:49;;;;;;;11.73;6.75;;;;;;;3.63;85.71;97086.66;5051861;28;20049;-80
2020/12/12 08:10:16;;;;;;;12.80;6.78;;;;;;;3.55;85.66;97087.63;5051633;28;20044;-80
2020/12/12 08:12:45;;;;;;;13.38;6.55;;;;;;;3.59;85.70;97082.72;5050902;28;20047;-80
2020/12/12 08:15:14;;;;;;;10.57;6.30;;;;;;;3.75;85.68;97103.13;5051991;28;20053;-80
2020/12/12 08:17:41;;;;;;;12.40;7.00;;;;;;;3.69;85.55;97094.00;5056124;28;20106;-80
2020/12/12 08:20:14;;;;;;;12.38;6.78;;;;;;;3.65;85.34;97095.38;5071639;28;20098;-80
2020/12/12 08:22:41;;;;;;;10.63;6.30;;;;;;;3.64;85.17;97082.97;5046951;28;20110;-80
2020/12/12 08:25:08;;;;;;;11.07;6.25;;;;;;;3.76;85.80;97100.22;5050958;28;20106;-80
2020/12/12 08:27:35;;;;;;;15.00;6.20;;;;;;;3.60;85.97;97095.09;5051552;28;20405;-80
2020/12/12 08:30:02;;;;;;;9.77;5.82;;;;;;;3.66;86.28;97102.44;5051497;28;20049;-80
2020/12/12 08:32:34;;;;;;;10.73;5.88;;;;;;;3.72;86.31;97115.09;5051228;28;20056;-80
2020/12/12 08:35:19;;;;;;;10.10;5.72;;;;;;;3.82;86.50;97126.34;5045710;28;20470;-79
2020/12/12 08:37:57;;;;;;;11.93;6.47;;;;;;;3.77;86.52;97120.72;5051190;28;20099;-80
2020/12/12 08:40:24;;;;;;;10.38;6.20;;;;;;;3.88;86.37;97130.13;5049841;28;20044;-80
2020/12/12 08:42:59;;;;;;;9.60;5.68;;;;;;;3.81;86.79;97130.06;5050944;28;20119;-80
2020/12/12 08:45:27;;;;;;;9.55;5.68;;;;;;;3.82;87.53;97131.72;5035612;28;20042;-80
2020/12/12 08:48:09;;;;;;;8.15;4.90;;;;;;;3.89;86.78;97137.19;5035831;28;20154;-80
2020/12/12 08:50:53;;;;;;;7.53;5.22;;;;;;;3.95;86.65;97140.97;5051027;28;20057;-80
2020/12/12 08:53:25;;;;;;;10.65;5.07;;;;;;;3.95;86.93;97143.66;5051152;28;20049;-80
2020/12/12 08:56:04;;;;;;;7.65;4.95;;;;;;;3.93;87.54;97141.16;5050829;28;20049;-80
2020/12/12 08:58:35;;;;;;;10.65;5.65;;;;;;;3.93;86.88;97137.63;5045695;28;20081;-81
2020/12/12 09:01:32;;;;;;;6.97;4.32;;;;;;;4.07;86.72;97152.84;5045185;28;20122;-80
2020/12/12 09:04:05;;;;;;;9.85;4.75;;;;;;;4.04;86.77;97148.69;5031226;28;20099;-80
2020/12/12 09:06:36;;;;;;;8.18;4.85;;;;;;;4.19;87.60;97164.75;5045416;28;20048;-80
2020/12/12 09:09:07;;;;;;;7.90;4.72;;;;;;;4.30;87.15;97171.47;5050920;28;20501;-80
2020/12/12 09:11:34;;;;;;;7.93;5.47;;;;;;;4.30;87.20;97171.47;5051066;28;20489;-80
2020/12/12 09:14:00;;;;;;;7.53;5.10;;;;;;;4.29;86.81;97167.13;5051180;28;20060;-81
2020/12/12 09:16:27;;;;;;;7.30;5.00;;;;;;;4.33;86.62;97175.63;5049947;28;20040;-81
2020/12/12 09:18:53;;;;;;;11.02;5.65;;;;;;;4.18;86.99;97154.19;5050883;28;20080;-80
2020/12/12 09:21:22;;;;;;;8.45;5.15;;;;;;;4.41;87.70;97181.72;5050658;28;20048;-85
2020/12/12 09:23:49;;;;;;;9.95;5.57;;;;;;;4.34;87.44;97159.28;5053340;28;20504;-80
2020/12/12 09:26:17;;;;;;;7.05;4.53;;;;;;;4.48;87.15;97189.00;5049994;28;20045;-80
2020/12/12 09:28:43;;;;;;;8.50;4.70;;;;;;;4.47;87.29;97187.31;5040544;28;20164;-81
2020/12/12 09:31:09;;;;;;;8.07;5.00;;;;;;;4.50;87.41;97181.56;5050393;28;20558;-80
2020/12/12 09:33:36;;;;;;;10.55;5.93;;;;;;;4.64;87.88;97195.94;5049106;28;20045;-80
2020/12/12 09:36:04;;;;;;;8.68;5.65;;;;;;;4.63;87.87;97188.91;5047914;28;20064;-80
2020/12/12 09:38:32;;;;;;;7.95;5.10;;;;;;;4.52;88.68;97185.72;5042099;28;20123;-81
2020/12/12 09:41:00;;;;;;;8.68;5.45;;;;;;;4.54;88.68;97202.50;5047890;28;20045;-80
2020/12/12 09:43:26;;;;;;;8.77;4.88;;;;;;;4.53;88.18;97214.31;5047304;28;20056;-80
2020/12/12 09:45:52;;;;;;;7.93;5.72;;;;;;;4.55;88.87;97212.25;5051157;28;20107;-80
2020/12/12 09:48:19;;;;;;;7.35;4.88;;;;;;;4.55;88.69;97214.94;5053655;28;20049;-80
2020/12/12 09:50:45;;;;;;;9.30;5.22;;;;;;;4.63;88.94;97226.59;5051736;28;20049;-80
2020/12/12 09:53:15;;;;;;;7.32;4.93;;;;;;;4.48;88.54;97214.03;5049425;28;20099;-80
2020/12/12 09:55:42;;;;;;;9.15;5.30;;;;;;;4.58;89.08;97221.78;5052427;28;20432;-81
2020/12/12 09:58:09;;;;;;;7.90;4.78;;;;;;;4.72;88.83;97226.25;5052511;28;20060;-81
2020/12/12 10:00:39;;;;;;;8.32;4.72;;;;;;;4.79;88.07;97224.44;5051037;28;20045;-80
2020/12/12 10:03:06;;;;;;;10.32;6.03;;;;;;;4.81;88.22;97231.50;5053760;28;20572;-80
2020/12/12 10:05:37;;;;;;;9.13;5.60;;;;;;;4.97;86.98;97223.94;5050297;28;20075;-80
2020/12/12 10:08:04;;;;;;;9.27;5.30;;;;;;;4.85;87.36;97216.59;5052714;28;20056;-81
2020/12/12 10:10:33;;;;;;;7.75;5.00;;;;;;;4.87;87.65;97222.63;5053595;28;20048;-80
2020/12/12 10:13:00;;;;;;;11.45;5.22;;;;;;;4.93;87.79;97224.53;5051902;28;20049;-80
2020/12/12 10:15:28;;;;;;;7.30;4.50;;;;;;;4.93;87.88;97238.81;5049885;28;20056;-80
2020/12/12 10:17:57;;;;;;;8.38;5.25;;;;;;;4.87;87.68;97219.94;5048863;28;20123;-80
2020/12/12 10:20:23;;;;;;;8.57;5.25;;;;;;;4.94;87.48;97213.56;5044758;28;20409;-80
2020/12/12 10:22:50;;;;;;;6.25;4.10;;;;;;;5.07;86.26;97233.53;5050605;28;20045;-80
2020/12/12 10:25:17;;;;;;;5.18;3.90;;;;;;;5.03;86.35;97208.88;5052654;28;20099;-81
2020/12/12 10:27:44;;;;;;;6.45;4.38;;;;;;;5.16;86.24;97235.03;5044537;28;20494;-80
2020/12/12 10:30:12;;;;;;;7.72;3.80;;;;;;;5.05;86.23;97231.03;5050591;28;20045;-81
2020/12/12 10:32:39;;;;;;;7.05;4.05;;;;;;;4.85;86.96;97214.75;5052502;28;20053;-81
2020/12/12 10:35:07;;;;;;;7.40;3.63;;;;;;;4.96;86.83;97249.19;5054195;28;20044;-81
2020/12/12 10:37:33;;;;;;;6.32;3.85;;;;;;;4.91;87.51;97237.38;5055477;28;20102;-82
2020/12/12 10:40:06;;;;;;;6.63;4.25;;;;;;;5.04;87.44;97255.47;5055909;28;20079;-82
2020/12/12 10:42:33;;;;;;;5.22;3.72;;;;;;;4.84;87.88;97233.81;5055399;28;20056;-81
2020/12/12 10:45:00;;;;;;;8.25;4.43;;;;;;;4.99;88.46;97258.75;5055237;28;20052;-84
2020/12/12 10:47:26;;;;;;;5.68;3.67;;;;;;;4.94;88.00;97253.97;5054109;28;20064;-81
2020/12/12 10:49:53;;;;;;;8.60;3.95;;;;;;;4.97;88.07;97236.59;5055365;28;20049;-80
2020/12/12 10:52:19;;;;;;;14.15;5.07;;;;;;;5.08;88.84;97264.84;5054738;28;20535;-80
2020/12/12 10:54:48;;;;;;;6.07;4.00;;;;;;;5.07;88.44;97260.47;5055237;28;20060;-80
2020/12/12 10:57:14;;;;;;;5.85;3.95;;;;;;;4.88;88.88;97229.69;5053908;28;20456;-80
2020/12/12 10:59:42;;;;;;;7.07;3.85;;;;;;;5.04;89.08;97264.38;5055113;28;20053;-80
2020/12/12 11:02:10;;;;;;;8.40;4.47;;;;;;;4.99;89.13;97255.25;5054826;28;20076;-80
2020/12/12 11:04:36;;;;;;;7.47;4.30;;;;;;;5.10;88.08;97257.38;5054967;28;20053;-80
2020/12/12 11:07:04;;;;;;;5.97;3.67;;;;;;;5.06;88.52;97270.41;5070110;28;20048;-79
2020/12/12 11:09:30;;;;;;;6.72;3.95;;;;;;;4.95;88.51;97241.31;5075347;28;20052;-79
2020/12/12 11:11:56;;;;;;;10.45;4.40;;;;;;;5.21;88.23;97280.25;5074777;28;20094;-80
2020/12/12 11:14:24;;;;;;;6.95;4.15;;;;;;;5.15;88.32;97271.09;5055062;28;20053;-80
2020/12/12 11:17:12;;;;;;;14.05;5.75;;;;;;;5.19;88.28;97277.75;5054248;28;20067;-80
2020/12/12 11:19:38;;;;;;;7.05;3.95;;;;;;;5.14;88.73;97272.94;5055090;28;20060;-79
2020/12/12 11:22:05;;;;;;;5.85;4.10;;;;;;;5.05;89.05;97276.81;5053574;28;20099;-79
2020/12/12 11:24:32;;;;;;;8.20;3.97;;;;;;;5.10;88.93;97273.53;5054016;28;20111;-79
2020/12/12 11:26:58;;;;;;;5.93;4.03;;;;;;;5.02;88.86;97268.31;5054665;28;20490;-79
2020/12/12 11:29:24;;;;;;;5.70;3.75;;;;;;;5.21;88.97;97278.41;5054570;28;20053;-79
2020/12/12 11:31:51;;;;;;;6.95;4.70;;;;;;;5.16;88.65;97250.38;5054247;28;20077;-79
2020/12/12 11:34:22;;;;;;;6.72;4.40;;;;;;;5.28;88.87;97278.44;5061777;28;20102;-79
2020/12/12 11:37:06;;;;;;;15.02;4.00;;;;;;;5.30;87.95;97274.53;5058264;28;20049;-79